LOG71Y EGNT-EGHI
Flight info
| Callsign | LOG71Y |
|---|---|
| Flight time | 0h 58m |
| Altitude | 18000 |
| Route | GIRLI P18 GASKO P16 RIBEL UP16 CROFT DCT KEPAD L151 PEPUL Y322 BUGUP |
| Aircraft | SF34/M-SDFGR/S |
Departure
| Time | 2026-05-07 20:30 |
|---|---|
| Airport | Newcastle International Airport (EGNT) |
Arrival
| Time | 2026-05-07 21:28 |
|---|---|
| Airport | Southampton Airport (EGHI) |
| Time | Latitude | Longitude | Altitude | Speed | Heading |
|---|---|---|---|---|---|
| 2026-05-07 20:18 | 55.03867 | -1.70594 | 263 ft | 0 kts | 4° |
| 2026-05-07 20:25 | 55.03856 | -1.70596 | 263 ft | 4 kts | 4° |
| 2026-05-07 20:25 | 55.03832 | -1.70598 | 263 ft | 2 kts | 4° |
| 2026-05-07 20:25 | 55.03811 | -1.70608 | 263 ft | 4 kts | 56° |
| 2026-05-07 20:25 | 55.03805 | -1.70648 | 263 ft | 3 kts | 94° |
| 2026-05-07 20:26 | 55.03806 | -1.70678 | 263 ft | 0 kts | 94° |
| 2026-05-07 20:27 | 55.03806 | -1.70667 | 263 ft | 5 kts | 94° |
| 2026-05-07 20:27 | 55.03799 | -1.70516 | 263 ft | 17 kts | 97° |
| 2026-05-07 20:27 | 55.03705 | -1.70434 | 263 ft | 18 kts | 195° |
| 2026-05-07 20:28 | 55.03601 | -1.70499 | 263 ft | 19 kts | 250° |
| 2026-05-07 20:28 | 55.03531 | -1.70642 | 263 ft | 19 kts | 182° |
| 2026-05-07 20:28 | 55.03435 | -1.70648 | 263 ft | 22 kts | 180° |
| 2026-05-07 20:28 | 55.03363 | -1.70595 | 263 ft | 3 kts | 84° |
| 2026-05-07 20:29 | 55.03364 | -1.70588 | 263 ft | 0 kts | 62° |
| 2026-05-07 20:29 | 55.03367 | -1.70580 | 263 ft | 5 kts | 63° |
| 2026-05-07 20:29 | 55.03493 | -1.70102 | 259 ft | 84 kts | 65° |
| 2026-05-07 20:29 | 55.03828 | -1.68791 | 309 ft | 147 kts | 69° |
| 2026-05-07 20:30 | 55.04290 | -1.66979 | 746 ft | 177 kts | 69° |
| 2026-05-07 20:30 | 55.04820 | -1.64806 | 1080 ft | 209 kts | 70° |
| 2026-05-07 20:30 | 55.05162 | -1.62435 | 1842 ft | 188 kts | 103° |
| 2026-05-07 20:30 | 55.04627 | -1.60578 | 2797 ft | 170 kts | 146° |
| 2026-05-07 20:31 | 55.03574 | -1.59738 | 3542 ft | 171 kts | 166° |
| 2026-05-07 20:31 | 55.02402 | -1.59567 | 4364 ft | 170 kts | 190° |
| 2026-05-07 20:31 | 55.01280 | -1.60271 | 5202 ft | 171 kts | 210° |
| 2026-05-07 20:31 | 55.00206 | -1.61203 | 6030 ft | 174 kts | 204° |
| 2026-05-07 20:32 | 54.99061 | -1.61977 | 6810 ft | 180 kts | 201° |
| 2026-05-07 20:32 | 54.97890 | -1.62738 | 7598 ft | 183 kts | 202° |
| 2026-05-07 20:32 | 54.96694 | -1.63535 | 8461 ft | 185 kts | 203° |
| 2026-05-07 20:32 | 54.95491 | -1.64328 | 9339 ft | 186 kts | 203° |
| 2026-05-07 20:33 | 54.94197 | -1.65187 | 9754 ft | 206 kts | 203° |
| 2026-05-07 20:33 | 54.92934 | -1.66010 | 10868 ft | 180 kts | 202° |
| 2026-05-07 20:33 | 54.91852 | -1.66727 | 12145 ft | 153 kts | 202° |
| 2026-05-07 20:33 | 54.90926 | -1.67338 | 13396 ft | 127 kts | 201° |
| 2026-05-07 20:34 | 54.90125 | -1.67866 | 14223 ft | 124 kts | 200° |
| 2026-05-07 20:34 | 54.89296 | -1.68415 | 14881 ft | 127 kts | 200° |
| 2026-05-07 20:34 | 54.88469 | -1.68958 | 15569 ft | 128 kts | 201° |
| 2026-05-07 20:34 | 54.87633 | -1.69509 | 16274 ft | 129 kts | 201° |
| 2026-05-07 20:35 | 54.86780 | -1.70067 | 16972 ft | 130 kts | 201° |
| 2026-05-07 20:35 | 54.85941 | -1.70621 | 17680 ft | 132 kts | 201° |
| 2026-05-07 20:35 | 54.84997 | -1.71243 | 17978 ft | 163 kts | 202° |
| 2026-05-07 20:35 | 54.83809 | -1.72023 | 18015 ft | 201 kts | 201° |
| 2026-05-07 20:36 | 54.82403 | -1.72945 | 18065 ft | 230 kts | 201° |
| 2026-05-07 20:36 | 54.80832 | -1.73974 | 18044 ft | 251 kts | 201° |
| 2026-05-07 20:36 | 54.79159 | -1.75070 | 18066 ft | 261 kts | 201° |
| 2026-05-07 20:36 | 54.77435 | -1.76197 | 18077 ft | 268 kts | 201° |
| 2026-05-07 20:37 | 54.75682 | -1.77345 | 18081 ft | 271 kts | 201° |
| 2026-05-07 20:37 | 54.73911 | -1.78502 | 18066 ft | 273 kts | 201° |
| 2026-05-07 20:37 | 54.72129 | -1.79663 | 18066 ft | 275 kts | 201° |
| 2026-05-07 20:37 | 54.70332 | -1.80837 | 18061 ft | 277 kts | 201° |
| 2026-05-07 20:38 | 54.68531 | -1.82009 | 18056 ft | 277 kts | 201° |
| 2026-05-07 20:38 | 54.66726 | -1.83185 | 18052 ft | 277 kts | 201° |
| 2026-05-07 20:38 | 54.64918 | -1.84359 | 18042 ft | 277 kts | 201° |
| 2026-05-07 20:38 | 54.63087 | -1.85548 | 18040 ft | 278 kts | 201° |
| 2026-05-07 20:39 | 54.61280 | -1.86723 | 18027 ft | 278 kts | 201° |
| 2026-05-07 20:39 | 54.59471 | -1.87893 | 18012 ft | 278 kts | 201° |
| 2026-05-07 20:39 | 54.57661 | -1.89068 | 18015 ft | 278 kts | 201° |
| 2026-05-07 20:39 | 54.55850 | -1.90239 | 18001 ft | 278 kts | 201° |
| 2026-05-07 20:40 | 54.54040 | -1.91409 | 17998 ft | 278 kts | 201° |
| 2026-05-07 20:40 | 54.52258 | -1.92560 | 18000 ft | 278 kts | 201° |
| 2026-05-07 20:40 | 54.50426 | -1.93742 | 17999 ft | 278 kts | 201° |
| 2026-05-07 20:40 | 54.48617 | -1.94909 | 18003 ft | 277 kts | 201° |
| 2026-05-07 20:41 | 54.46783 | -1.96090 | 17999 ft | 278 kts | 201° |
| 2026-05-07 20:41 | 54.44970 | -1.97257 | 18003 ft | 279 kts | 201° |
| 2026-05-07 20:41 | 54.43147 | -1.98429 | 18007 ft | 279 kts | 201° |
| 2026-05-07 20:41 | 54.41305 | -1.99612 | 18003 ft | 280 kts | 201° |
| 2026-05-07 20:42 | 54.39484 | -2.00780 | 18002 ft | 279 kts | 201° |
| 2026-05-07 20:42 | 54.37663 | -2.01947 | 17998 ft | 280 kts | 201° |
| 2026-05-07 20:42 | 54.35865 | -2.03099 | 17995 ft | 280 kts | 201° |
| 2026-05-07 20:42 | 54.34042 | -2.04264 | 17997 ft | 280 kts | 201° |
| 2026-05-07 20:43 | 54.32195 | -2.05445 | 17998 ft | 280 kts | 201° |
| 2026-05-07 20:43 | 54.30367 | -2.06613 | 17993 ft | 280 kts | 201° |
| 2026-05-07 20:43 | 54.28547 | -2.07774 | 17995 ft | 279 kts | 201° |
| 2026-05-07 20:43 | 54.26723 | -2.08936 | 17996 ft | 279 kts | 201° |
| 2026-05-07 20:44 | 54.24903 | -2.10095 | 18000 ft | 279 kts | 201° |
| 2026-05-07 20:44 | 54.23078 | -2.11257 | 18000 ft | 279 kts | 201° |
| 2026-05-07 20:44 | 54.21257 | -2.12412 | 18001 ft | 280 kts | 201° |
| 2026-05-07 20:44 | 54.19432 | -2.13574 | 18000 ft | 280 kts | 201° |
| 2026-05-07 20:45 | 54.17553 | -2.14369 | 17994 ft | 281 kts | 184° |
| 2026-05-07 20:45 | 54.15599 | -2.13711 | 17993 ft | 286 kts | 162° |
| 2026-05-07 20:45 | 54.13733 | -2.12673 | 17992 ft | 283 kts | 170° |
| 2026-05-07 20:45 | 54.11774 | -2.12227 | 17992 ft | 281 kts | 178° |
| 2026-05-07 20:46 | 54.09823 | -2.11984 | 17990 ft | 282 kts | 177° |
| 2026-05-07 20:46 | 54.07868 | -2.11521 | 17991 ft | 284 kts | 173° |
| 2026-05-07 20:46 | 54.05921 | -2.10964 | 17992 ft | 284 kts | 174° |
| 2026-05-07 20:46 | 54.03963 | -2.10538 | 17995 ft | 283 kts | 175° |
| 2026-05-07 20:47 | 54.02010 | -2.10088 | 17992 ft | 284 kts | 173° |
| 2026-05-07 20:47 | 54.00050 | -2.09582 | 17999 ft | 284 kts | 174° |
| 2026-05-07 20:47 | 53.98091 | -2.09148 | 17999 ft | 284 kts | 174° |
| 2026-05-07 20:47 | 53.96131 | -2.08678 | 17993 ft | 285 kts | 174° |
| 2026-05-07 20:48 | 53.94172 | -2.08203 | 17994 ft | 285 kts | 174° |
| 2026-05-07 20:48 | 53.92196 | -2.07750 | 18002 ft | 285 kts | 174° |
| 2026-05-07 20:48 | 53.90242 | -2.07280 | 18003 ft | 285 kts | 174° |
| 2026-05-07 20:48 | 53.88279 | -2.06819 | 17998 ft | 285 kts | 174° |
| 2026-05-07 20:49 | 53.86310 | -2.06356 | 18003 ft | 285 kts | 174° |
| 2026-05-07 20:49 | 53.84297 | -2.05879 | 18004 ft | 285 kts | 174° |
| 2026-05-07 20:49 | 53.82363 | -2.05426 | 17997 ft | 285 kts | 174° |
| 2026-05-07 20:49 | 53.80409 | -2.04965 | 18001 ft | 285 kts | 174° |
| 2026-05-07 20:50 | 53.78443 | -2.04505 | 17997 ft | 285 kts | 174° |
| 2026-05-07 20:50 | 53.76475 | -2.04042 | 18000 ft | 285 kts | 174° |
| 2026-05-07 20:50 | 53.74535 | -2.03586 | 17996 ft | 285 kts | 174° |
| 2026-05-07 20:50 | 53.72502 | -2.03111 | 18004 ft | 285 kts | 174° |
| 2026-05-07 20:51 | 53.70605 | -2.02667 | 17989 ft | 286 kts | 174° |
| 2026-05-07 20:51 | 53.68617 | -2.02202 | 17996 ft | 286 kts | 174° |
| 2026-05-07 20:51 | 53.66667 | -2.01747 | 17989 ft | 286 kts | 174° |
| 2026-05-07 20:51 | 53.64680 | -2.01282 | 17997 ft | 286 kts | 174° |
| 2026-05-07 20:52 | 53.62730 | -2.00828 | 17996 ft | 286 kts | 174° |
| 2026-05-07 20:52 | 53.60757 | -2.00369 | 17997 ft | 286 kts | 174° |
| 2026-05-07 20:52 | 53.58785 | -1.99910 | 17997 ft | 286 kts | 174° |
| 2026-05-07 20:52 | 53.56808 | -1.99449 | 17997 ft | 286 kts | 174° |
| 2026-05-07 20:53 | 53.54842 | -1.98994 | 17997 ft | 286 kts | 174° |
| 2026-05-07 20:53 | 53.52867 | -1.98534 | 18000 ft | 287 kts | 174° |
| 2026-05-07 20:53 | 53.50891 | -1.98076 | 18000 ft | 286 kts | 174° |
| 2026-05-07 20:53 | 53.48918 | -1.97620 | 18000 ft | 286 kts | 174° |
| 2026-05-07 20:54 | 53.46944 | -1.97163 | 17999 ft | 287 kts | 174° |
| 2026-05-07 20:54 | 53.44970 | -1.96707 | 18001 ft | 287 kts | 174° |
| 2026-05-07 20:54 | 53.42991 | -1.96249 | 18009 ft | 286 kts | 174° |
| 2026-05-07 20:54 | 53.41019 | -1.95794 | 18011 ft | 286 kts | 174° |
| 2026-05-07 20:55 | 53.39046 | -1.95340 | 18013 ft | 286 kts | 174° |
| 2026-05-07 20:55 | 53.37073 | -1.94884 | 18013 ft | 286 kts | 174° |
| 2026-05-07 20:55 | 53.35104 | -1.94432 | 18014 ft | 286 kts | 174° |
| 2026-05-07 20:55 | 53.33133 | -1.93980 | 18015 ft | 286 kts | 174° |
| 2026-05-07 20:56 | 53.31187 | -1.93531 | 18012 ft | 286 kts | 174° |
| 2026-05-07 20:56 | 53.29213 | -1.93080 | 18012 ft | 286 kts | 174° |
| 2026-05-07 20:56 | 53.27242 | -1.92626 | 18003 ft | 286 kts | 174° |
| 2026-05-07 20:56 | 53.25929 | -1.92325 | 18006 ft | 286 kts | 174° |
| 2026-05-07 20:57 | 53.23844 | -1.91850 | 18011 ft | 286 kts | 174° |
| 2026-05-07 20:57 | 53.21921 | -1.91409 | 18009 ft | 286 kts | 174° |
| 2026-05-07 20:57 | 53.19883 | -1.90943 | 18009 ft | 286 kts | 174° |
| 2026-05-07 20:57 | 53.17913 | -1.90495 | 18008 ft | 286 kts | 174° |
| 2026-05-07 20:58 | 53.15912 | -1.90036 | 18007 ft | 286 kts | 174° |
| 2026-05-07 20:58 | 53.13941 | -1.89589 | 18004 ft | 286 kts | 174° |
| 2026-05-07 20:58 | 53.11942 | -1.89133 | 18004 ft | 286 kts | 174° |
| 2026-05-07 20:58 | 53.09969 | -1.88685 | 18002 ft | 286 kts | 174° |
| 2026-05-07 20:59 | 53.07999 | -1.88238 | 18002 ft | 286 kts | 174° |
| 2026-05-07 20:59 | 53.06021 | -1.87788 | 18001 ft | 286 kts | 174° |
| 2026-05-07 20:59 | 53.04050 | -1.87342 | 17999 ft | 286 kts | 174° |
| 2026-05-07 20:59 | 53.02067 | -1.86892 | 18000 ft | 286 kts | 174° |
| 2026-05-07 21:00 | 53.00101 | -1.86447 | 17999 ft | 286 kts | 174° |
| 2026-05-07 21:00 | 52.98107 | -1.85996 | 18005 ft | 286 kts | 174° |
| 2026-05-07 21:00 | 52.96158 | -1.85557 | 18006 ft | 286 kts | 174° |
| 2026-05-07 21:00 | 52.94164 | -1.85105 | 18001 ft | 287 kts | 174° |
| 2026-05-07 21:01 | 52.92204 | -1.84664 | 18003 ft | 287 kts | 174° |
| 2026-05-07 21:01 | 52.90226 | -1.84219 | 18003 ft | 287 kts | 174° |
| 2026-05-07 21:01 | 52.88248 | -1.83772 | 18004 ft | 287 kts | 174° |
| 2026-05-07 21:01 | 52.86270 | -1.83328 | 18005 ft | 287 kts | 174° |
| 2026-05-07 21:02 | 52.84260 | -1.82876 | 18005 ft | 287 kts | 174° |
| 2026-05-07 21:02 | 52.82288 | -1.82433 | 18005 ft | 287 kts | 174° |
| 2026-05-07 21:02 | 52.80336 | -1.81996 | 18005 ft | 287 kts | 174° |
| 2026-05-07 21:02 | 52.78328 | -1.81545 | 18005 ft | 287 kts | 174° |
| 2026-05-07 21:03 | 52.76378 | -1.81110 | 18004 ft | 287 kts | 174° |
| 2026-05-07 21:03 | 52.74392 | -1.80664 | 17946 ft | 288 kts | 174° |
| 2026-05-07 21:03 | 52.72406 | -1.80222 | 17942 ft | 288 kts | 174° |
| 2026-05-07 21:03 | 52.70422 | -1.79778 | 17952 ft | 288 kts | 174° |
| 2026-05-07 21:04 | 52.68439 | -1.79336 | 17953 ft | 287 kts | 174° |
| 2026-05-07 21:04 | 52.66458 | -1.78894 | 17954 ft | 287 kts | 174° |
| 2026-05-07 21:04 | 52.64467 | -1.78451 | 17954 ft | 287 kts | 174° |
| 2026-05-07 21:04 | 52.62497 | -1.78013 | 17955 ft | 288 kts | 174° |
| 2026-05-07 21:05 | 52.60511 | -1.77572 | 17956 ft | 287 kts | 174° |
| 2026-05-07 21:05 | 52.58529 | -1.77132 | 17958 ft | 287 kts | 174° |
| 2026-05-07 21:05 | 52.56551 | -1.76692 | 17959 ft | 287 kts | 174° |
| 2026-05-07 21:05 | 52.54569 | -1.76254 | 17958 ft | 287 kts | 174° |
| 2026-05-07 21:06 | 52.52555 | -1.75808 | 17960 ft | 287 kts | 174° |
| 2026-05-07 21:06 | 52.50577 | -1.75370 | 17953 ft | 287 kts | 174° |
| 2026-05-07 21:06 | 52.48595 | -1.74932 | 17953 ft | 288 kts | 174° |
| 2026-05-07 21:06 | 52.46612 | -1.74495 | 17951 ft | 288 kts | 174° |
| 2026-05-07 21:07 | 52.44631 | -1.74057 | 17953 ft | 288 kts | 174° |
| 2026-05-07 21:07 | 52.42642 | -1.73619 | 17954 ft | 288 kts | 174° |
| 2026-05-07 21:07 | 52.40663 | -1.73183 | 17954 ft | 288 kts | 174° |
| 2026-05-07 21:07 | 52.38676 | -1.72746 | 17954 ft | 288 kts | 174° |
| 2026-05-07 21:08 | 52.36758 | -1.71883 | 17953 ft | 291 kts | 155° |
| 2026-05-07 21:08 | 52.35086 | -1.70010 | 17896 ft | 294 kts | 147° |
| 2026-05-07 21:08 | 52.33399 | -1.68054 | 17631 ft | 300 kts | 148° |
| 2026-05-07 21:08 | 52.31732 | -1.66166 | 18138 ft | 281 kts | 148° |
| 2026-05-07 21:09 | 52.30019 | -1.64678 | 18194 ft | 282 kts | 167° |
| 2026-05-07 21:09 | 52.28066 | -1.64495 | 18057 ft | 284 kts | 188° |
| 2026-05-07 21:09 | 52.26150 | -1.65306 | 17981 ft | 285 kts | 202° |
| 2026-05-07 21:09 | 52.24234 | -1.66672 | 17983 ft | 284 kts | 205° |
| 2026-05-07 21:10 | 52.22537 | -1.67920 | 17986 ft | 284 kts | 205° |
| 2026-05-07 21:10 | 52.20712 | -1.69206 | 18000 ft | 284 kts | 204° |
| 2026-05-07 21:10 | 52.18868 | -1.70421 | 17999 ft | 284 kts | 202° |
| 2026-05-07 21:10 | 52.16983 | -1.71552 | 17997 ft | 284 kts | 200° |
| 2026-05-07 21:11 | 52.15108 | -1.72561 | 18000 ft | 285 kts | 198° |
| 2026-05-07 21:11 | 52.13185 | -1.73469 | 17999 ft | 285 kts | 196° |
| 2026-05-07 21:11 | 52.09294 | -1.74905 | 17999 ft | 285 kts | 191° |
| 2026-05-07 21:12 | 52.07347 | -1.75384 | 18005 ft | 286 kts | 189° |
| 2026-05-07 21:12 | 52.05368 | -1.75708 | 18007 ft | 286 kts | 186° |
| 2026-05-07 21:12 | 52.03378 | -1.75866 | 18004 ft | 287 kts | 183° |
| 2026-05-07 21:12 | 52.01356 | -1.75843 | 17987 ft | 287 kts | 180° |
| 2026-05-07 21:13 | 51.99362 | -1.75623 | 17987 ft | 288 kts | 176° |
| 2026-05-07 21:13 | 51.97378 | -1.75189 | 17986 ft | 288 kts | 172° |
| 2026-05-07 21:13 | 51.95412 | -1.74518 | 17986 ft | 289 kts | 168° |
| 2026-05-07 21:13 | 51.93499 | -1.73591 | 17993 ft | 290 kts | 163° |
| 2026-05-07 21:14 | 51.91607 | -1.72349 | 18000 ft | 292 kts | 158° |
| 2026-05-07 21:14 | 51.89819 | -1.70783 | 18005 ft | 293 kts | 151° |
| 2026-05-07 21:14 | 51.88162 | -1.68847 | 18001 ft | 294 kts | 143° |
| 2026-05-07 21:14 | 51.86626 | -1.66654 | 18007 ft | 294 kts | 142° |
| 2026-05-07 21:15 | 51.85186 | -1.64305 | 18015 ft | 295 kts | 133° |
| 2026-05-07 21:15 | 51.83857 | -1.61763 | 18030 ft | 293 kts | 137° |
| 2026-05-07 21:15 | 51.82222 | -1.59848 | 18027 ft | 286 kts | 158° |
| 2026-05-07 21:15 | 51.80327 | -1.59090 | 18034 ft | 280 kts | 175° |
| 2026-05-07 21:16 | 51.78396 | -1.58847 | 18024 ft | 278 kts | 180° |
| 2026-05-07 21:16 | 51.76493 | -1.58954 | 18026 ft | 276 kts | 187° |
| 2026-05-07 21:16 | 51.74582 | -1.58974 | 18013 ft | 276 kts | 175° |
| 2026-05-07 21:16 | 51.72656 | -1.58679 | 18200 ft | 270 kts | 176° |
| 2026-05-07 21:17 | 51.70710 | -1.58664 | 17828 ft | 286 kts | 184° |
| 2026-05-07 21:17 | 51.68701 | -1.58528 | 17753 ft | 289 kts | 167° |
| 2026-05-07 21:17 | 51.66778 | -1.57703 | 17702 ft | 287 kts | 169° |
| 2026-05-07 21:17 | 51.65434 | -1.57221 | 17804 ft | 284 kts | 171° |
| 2026-05-07 21:18 | 51.63492 | -1.56658 | 18164 ft | 277 kts | 174° |
| 2026-05-07 21:18 | 51.61561 | -1.56437 | 18213 ft | 280 kts | 182° |
| 2026-05-07 21:18 | 51.59606 | -1.56593 | 18115 ft | 286 kts | 185° |
| 2026-05-07 21:18 | 51.57575 | -1.56811 | 17607 ft | 298 kts | 185° |
| 2026-05-07 21:19 | 51.55475 | -1.56908 | 17355 ft | 298 kts | 180° |
| 2026-05-07 21:19 | 51.53410 | -1.56597 | 17130 ft | 298 kts | 172° |
| 2026-05-07 21:19 | 51.51329 | -1.55879 | 16883 ft | 298 kts | 172° |
| 2026-05-07 21:19 | 51.49270 | -1.55382 | 16434 ft | 303 kts | 174° |
| 2026-05-07 21:20 | 51.47153 | -1.54956 | 15824 ft | 308 kts | 175° |
| 2026-05-07 21:20 | 51.45017 | -1.54551 | 15227 ft | 310 kts | 175° |
| 2026-05-07 21:20 | 51.42877 | -1.54154 | 14645 ft | 310 kts | 175° |
| 2026-05-07 21:20 | 51.40746 | -1.53761 | 14075 ft | 308 kts | 175° |
| 2026-05-07 21:21 | 51.38626 | -1.53371 | 13451 ft | 305 kts | 175° |
| 2026-05-07 21:21 | 51.36525 | -1.52985 | 12824 ft | 302 kts | 175° |
| 2026-05-07 21:21 | 51.34445 | -1.52601 | 12204 ft | 300 kts | 175° |
| 2026-05-07 21:21 | 51.32410 | -1.52222 | 11590 ft | 297 kts | 175° |
| 2026-05-07 21:22 | 51.30368 | -1.51839 | 10984 ft | 294 kts | 175° |
| 2026-05-07 21:22 | 51.28351 | -1.51448 | 10393 ft | 291 kts | 175° |
| 2026-05-07 21:22 | 51.26352 | -1.51057 | 9791 ft | 288 kts | 175° |
| 2026-05-07 21:22 | 51.24369 | -1.50670 | 9152 ft | 286 kts | 175° |
| 2026-05-07 21:23 | 51.22400 | -1.50302 | 8521 ft | 284 kts | 175° |
| 2026-05-07 21:23 | 51.20479 | -1.49757 | 7902 ft | 280 kts | 170° |
| 2026-05-07 21:23 | 51.18563 | -1.49185 | 7294 ft | 279 kts | 171° |
| 2026-05-07 21:23 | 51.16654 | -1.48665 | 6701 ft | 277 kts | 171° |
| 2026-05-07 21:24 | 51.14755 | -1.48176 | 6084 ft | 275 kts | 171° |
| 2026-05-07 21:24 | 51.12876 | -1.47713 | 5467 ft | 270 kts | 170° |
| 2026-05-07 21:24 | 51.11152 | -1.46654 | 4847 ft | 266 kts | 148° |
| 2026-05-07 21:24 | 51.09689 | -1.44881 | 4225 ft | 263 kts | 137° |
| 2026-05-07 21:25 | 51.08440 | -1.42843 | 3615 ft | 260 kts | 133° |
| 2026-05-07 21:25 | 51.07218 | -1.40746 | 3027 ft | 257 kts | 133° |
| 2026-05-07 21:25 | 51.06013 | -1.38675 | 2410 ft | 254 kts | 132° |
| 2026-05-07 21:25 | 51.04828 | -1.36640 | 2023 ft | 246 kts | 133° |
| 2026-05-07 21:26 | 51.03687 | -1.34680 | 1998 ft | 238 kts | 132° |
| 2026-05-07 21:26 | 51.02616 | -1.32890 | 1922 ft | 198 kts | 137° |
| 2026-05-07 21:26 | 51.01607 | -1.32101 | 1943 ft | 141 kts | 173° |
| 2026-05-07 21:26 | 51.00721 | -1.32535 | 1380 ft | 132 kts | 202° |
| 2026-05-07 21:27 | 50.99898 | -1.33039 | 1003 ft | 126 kts | 195° |
| 2026-05-07 21:27 | 50.99069 | -1.33444 | 891 ft | 125 kts | 196° |
| 2026-05-07 21:27 | 50.98236 | -1.33899 | 682 ft | 128 kts | 197° |
| 2026-05-07 21:27 | 50.97452 | -1.34338 | 430 ft | 110 kts | 198° |
| 2026-05-07 21:28 | 50.96719 | -1.34741 | 284 ft | 109 kts | 197° |
| 2026-05-07 21:28 | 50.96027 | -1.35123 | 133 ft | 106 kts | 197° |
| 2026-05-07 21:28 | 50.95345 | -1.35501 | 37 ft | 94 kts | 198° |
| 2026-05-07 21:28 | 50.94912 | -1.35743 | 36 ft | 34 kts | 199° |
| 2026-05-07 21:29 | 50.94696 | -1.35865 | 36 ft | 32 kts | 198° |
| 2026-05-07 21:29 | 50.94568 | -1.35946 | 34 ft | 12 kts | 232° |
| 2026-05-07 21:29 | 50.94595 | -1.36102 | 35 ft | 18 kts | 314° |
| 2026-05-07 21:29 | 50.94713 | -1.36111 | 35 ft | 21 kts | 19° |
| 2026-05-07 21:30 | 50.94836 | -1.36041 | 35 ft | 23 kts | 20° |
| 2026-05-07 21:30 | 50.94888 | -1.36027 | 35 ft | 6 kts | 308° |
| 2026-05-07 21:30 | 50.94917 | -1.36150 | 35 ft | 10 kts | 290° |
| 2026-05-07 21:30 | 50.94938 | -1.36214 | 35 ft | 3 kts | 13° |
| 2026-05-07 21:31 | 50.94979 | -1.36181 | 35 ft | 6 kts | 19° |
| 2026-05-07 21:31 | 50.94988 | -1.36176 | 35 ft | 0 kts | 19° |